createdAt,value
2023-02-26T00:00:26.730Z,76.00
2023-02-26T00:01:32.612Z,75.92
2023-02-26T00:02:36.977Z,75.75
2023-02-26T00:03:40.800Z,75.76
2023-02-26T00:04:44.010Z,75.97
2023-02-26T00:05:46.754Z,75.74
2023-02-26T00:06:58.150Z,75.50
2023-02-26T00:08:06.215Z,75.79
2023-02-26T00:09:09.296Z,75.95
2023-02-26T00:10:16.966Z,75.09
2023-02-26T00:11:20.628Z,75.25
2023-02-26T00:12:23.936Z,75.30
2023-02-26T00:13:27.019Z,75.51
2023-02-26T00:14:30.094Z,75.39
2023-02-26T00:15:33.449Z,75.04
2023-02-26T00:16:36.809Z,74.52
2023-02-26T00:18:10.833Z,74.81
2023-02-26T00:19:14.484Z,75.13
2023-02-26T00:20:18.174Z,75.15
2023-02-26T00:21:23.434Z,75.17
2023-02-26T00:22:26.792Z,75.28
2023-02-26T00:23:29.954Z,75.70
2023-02-26T00:24:32.834Z,75.96
2023-02-26T00:25:35.826Z,75.98
2023-02-26T00:26:38.814Z,75.76
2023-02-26T00:27:42.332Z,75.59
2023-02-26T00:28:46.031Z,75.24
2023-02-26T00:29:49.512Z,75.00
2023-02-26T00:30:52.656Z,75.31
2023-02-26T00:31:56.050Z,75.22
2023-02-26T00:32:59.591Z,75.61
2023-02-26T00:34:03.373Z,75.33
2023-02-26T00:35:13.624Z,75.19
2023-02-26T00:36:51.600Z,75.58
2023-02-26T00:38:07.231Z,74.97
2023-02-26T00:39:29.788Z,75.37
2023-02-26T00:40:45.753Z,75.68
2023-02-26T00:41:49.029Z,75.70
2023-02-26T00:42:52.409Z,75.60
2023-02-26T00:43:55.688Z,75.18
2023-02-26T00:44:58.829Z,75.23
2023-02-26T00:46:10.645Z,74.64
2023-02-26T00:47:34.070Z,74.74
2023-02-26T00:48:45.865Z,75.10
2023-02-26T00:50:13.866Z,75.35
2023-02-26T00:51:29.057Z,75.06
2023-02-26T00:52:56.232Z,75.27
2023-02-26T00:54:26.879Z,74.24
2023-02-26T00:55:30.678Z,74.12
2023-02-26T00:56:33.625Z,73.98
2023-02-26T00:57:36.789Z,74.28
2023-02-26T00:58:39.891Z,74.83
2023-02-26T00:59:43.369Z,74.22
2023-02-26T01:00:46.649Z,74.65
2023-02-26T01:01:50.669Z,74.93
2023-02-26T01:02:53.908Z,74.83
2023-02-26T01:03:57.226Z,74.81
2023-02-26T01:05:01.350Z,74.88
2023-02-26T01:06:04.668Z,74.94
2023-02-26T01:07:10.067Z,74.78
2023-02-26T01:08:23.577Z,74.74
2023-02-26T01:09:35.830Z,74.35
2023-02-26T01:10:39.421Z,74.58
2023-02-26T01:11:42.740Z,74.81
2023-02-26T01:12:45.924Z,74.88
2023-02-26T01:13:49.214Z,74.13
2023-02-26T01:14:53.202Z,74.19
2023-02-26T01:16:03.093Z,74.15
2023-02-26T01:17:15.585Z,73.85
2023-02-26T01:18:39.216Z,74.33
2023-02-26T01:19:45.690Z,74.54
2023-02-26T01:20:54.640Z,74.35
2023-02-26T01:22:07.994Z,74.35
2023-02-26T01:23:17.838Z,73.97
2023-02-26T01:24:23.660Z,74.63
2023-02-26T01:25:35.445Z,74.46
2023-02-26T01:26:38.681Z,74.37
2023-02-26T01:27:41.814Z,74.52
2023-02-26T01:28:45.382Z,74.58
2023-02-26T01:29:48.705Z,74.56
2023-02-26T01:30:55.300Z,74.48
2023-02-26T01:32:28.136Z,73.40
2023-02-26T01:33:41.689Z,73.36
2023-02-26T01:35:06.484Z,73.44
2023-02-26T01:36:31.455Z,73.15
2023-02-26T01:37:58.158Z,72.93
2023-02-26T01:39:26.040Z,73.25
2023-02-26T01:41:02.771Z,73.46
2023-02-26T01:42:18.408Z,73.35
2023-02-26T01:43:44.126Z,73.67
2023-02-26T01:46:34.478Z,73.39
2023-02-26T01:47:51.980Z,73.32
2023-02-26T01:48:59.419Z,73.67
2023-02-26T01:50:18.029Z,74.12
2023-02-26T01:51:54.186Z,74.30
2023-02-26T01:53:18.069Z,74.12
2023-02-26T01:54:24.224Z,74.69
2023-02-26T01:55:29.023Z,74.73
2023-02-26T01:56:32.783Z,74.61
2023-02-26T01:57:35.981Z,74.27
2023-02-26T01:58:40.500Z,74.03
2023-02-26T01:59:47.467Z,74.44
2023-02-26T02:00:50.350Z,74.91
2023-02-26T02:01:56.378Z,75.15
2023-02-26T02:02:59.572Z,75.19
2023-02-26T02:04:03.744Z,75.15
2023-02-26T02:05:14.946Z,75.20
2023-02-26T02:06:25.149Z,75.05
2023-02-26T02:07:28.271Z,75.49
2023-02-26T02:08:35.915Z,75.07
2023-02-26T02:09:39.696Z,74.99
2023-02-26T02:10:47.384Z,74.72
2023-02-26T02:12:03.303Z,74.70
2023-02-26T02:13:17.226Z,74.83
2023-02-26T02:14:36.548Z,75.11
2023-02-26T02:16:03.933Z,75.58
2023-02-26T02:17:14.862Z,75.34
2023-02-26T02:18:36.356Z,75.65
2023-02-26T02:19:54.301Z,75.69
2023-02-26T02:21:26.717Z,75.60
2023-02-26T02:22:42.064Z,75.72
2023-02-26T02:24:02.110Z,75.31
2023-02-26T02:25:42.447Z,75.63
2023-02-26T02:26:51.248Z,75.99
2023-02-26T02:28:18.769Z,75.61
2023-02-26T02:29:50.929Z,75.53
2023-02-26T02:31:07.437Z,76.19
2023-02-26T02:32:18.245Z,76.05
2023-02-26T02:33:27.684Z,76.00
2023-02-26T02:34:48.483Z,75.90
2023-02-26T02:36:01.484Z,75.93
2023-02-26T02:37:41.960Z,76.51
2023-02-26T02:38:56.050Z,76.26
2023-02-26T02:40:07.964Z,76.63
2023-02-26T02:41:26.854Z,76.78
2023-02-26T02:42:36.019Z,76.60
2023-02-26T02:43:41.110Z,76.76
2023-02-26T02:44:49.814Z,77.09
2023-02-26T02:45:59.671Z,77.33
2023-02-26T02:47:06.470Z,76.69
2023-02-26T02:48:45.841Z,76.70
2023-02-26T02:50:00.468Z,76.47
2023-02-26T02:51:14.661Z,76.53
2023-02-26T02:52:36.390Z,76.89
2023-02-26T02:53:50.869Z,77.20
2023-02-26T02:55:03.491Z,77.10
2023-02-26T02:56:13.105Z,76.85
2023-02-26T02:57:31.009Z,77.10
2023-02-26T02:58:42.316Z,77.24
2023-02-26T02:59:48.906Z,77.27
2023-02-26T03:00:58.695Z,77.33
2023-02-26T03:02:10.880Z,77.44
2023-02-26T03:03:31.564Z,77.75
2023-02-26T03:04:34.988Z,77.92
2023-02-26T03:05:37.991Z,77.86
2023-02-26T03:06:41.571Z,77.92
2023-02-26T03:07:57.618Z,78.09
2023-02-26T03:09:02.245Z,77.76
2023-02-26T03:10:05.914Z,77.68
2023-02-26T03:11:09.956Z,77.68
2023-02-26T03:12:13.081Z,77.92
2023-02-26T03:13:23.992Z,77.97
2023-02-26T03:14:28.385Z,78.38
2023-02-26T03:15:58.555Z,78.34
2023-02-26T03:17:28.005Z,78.55
2023-02-26T03:18:52.227Z,78.09
2023-02-26T03:20:08.551Z,77.88
2023-02-26T03:21:26.786Z,78.34
2023-02-26T03:22:58.901Z,78.48
2023-02-26T03:24:32.157Z,78.69
2023-02-26T03:26:22.977Z,78.94
2023-02-26T03:27:42.338Z,78.80
2023-02-26T03:29:09.939Z,79.03
2023-02-26T03:30:25.546Z,79.34
2023-02-26T03:31:59.246Z,79.25
2023-02-26T03:33:18.651Z,79.38
2023-02-26T03:35:12.775Z,79.22
2023-02-26T03:36:20.355Z,79.06
2023-02-26T03:37:39.057Z,79.25
2023-02-26T03:39:05.903Z,79.11
2023-02-26T03:40:18.341Z,79.07
2023-02-26T03:41:33.666Z,79.04
2023-02-26T03:42:57.503Z,78.51
2023-02-26T03:44:24.584Z,78.72
2023-02-26T03:45:33.690Z,78.80
2023-02-26T03:46:44.416Z,79.07
2023-02-26T03:47:54.258Z,79.09
2023-02-26T03:49:02.771Z,79.05
2023-02-26T03:50:20.894Z,79.03
2023-02-26T03:51:27.457Z,79.23
2023-02-26T03:52:34.666Z,79.59
2023-02-26T03:54:02.571Z,79.60
2023-02-26T03:55:19.614Z,79.87
2023-02-26T03:56:33.607Z,80.18
2023-02-26T03:57:36.661Z,80.11
2023-02-26T03:58:39.712Z,80.13
2023-02-26T03:59:42.869Z,80.24
2023-02-26T04:00:51.310Z,80.28
2023-02-26T04:02:02.771Z,80.25
2023-02-26T04:03:29.335Z,79.38
2023-02-26T04:04:50.586Z,79.80
2023-02-26T04:05:54.374Z,80.06
2023-02-26T04:06:57.466Z,80.21
2023-02-26T04:08:00.965Z,80.27
2023-02-26T04:09:05.102Z,80.33
2023-02-26T04:10:10.205Z,80.33
2023-02-26T04:11:20.350Z,80.12
2023-02-26T04:12:27.863Z,80.12
2023-02-26T04:13:30.888Z,80.35
2023-02-26T04:14:33.781Z,80.70
2023-02-26T04:15:36.677Z,80.83
2023-02-26T04:16:39.539Z,80.72
2023-02-26T04:17:42.555Z,80.51
2023-02-26T04:18:45.409Z,80.33
2023-02-26T04:19:48.630Z,80.58
2023-02-26T04:20:51.428Z,80.78
2023-02-26T04:21:54.434Z,80.94
2023-02-26T04:22:57.664Z,81.01
2023-02-26T04:24:01.985Z,81.06
2023-02-26T04:25:05.922Z,81.24
2023-02-26T04:26:09.192Z,81.14
2023-02-26T04:27:12.421Z,81.15
2023-02-26T04:28:15.400Z,81.44
2023-02-26T04:29:18.326Z,81.39
2023-02-26T04:30:21.547Z,81.39
2023-02-26T04:31:24.651Z,81.57
2023-02-26T04:32:27.937Z,81.64
2023-02-26T04:33:32.052Z,81.46
2023-02-26T04:34:34.970Z,81.11
2023-02-26T04:35:37.825Z,81.00
2023-02-26T04:36:40.719Z,81.07
2023-02-26T04:37:43.787Z,81.31
2023-02-26T04:38:47.857Z,81.68
2023-02-26T04:39:51.113Z,81.78
2023-02-26T04:40:54.020Z,81.71
2023-02-26T04:41:56.969Z,81.79
2023-02-26T04:42:59.976Z,81.74
2023-02-26T04:44:02.899Z,81.37
2023-02-26T04:45:06.394Z,81.38
2023-02-26T04:46:09.398Z,81.33
2023-02-26T04:47:12.562Z,81.28
2023-02-26T04:48:17.095Z,81.38
2023-02-26T04:49:20.073Z,81.25
2023-02-26T04:50:23.190Z,81.09
2023-02-26T04:51:26.246Z,81.19
2023-02-26T04:52:29.225Z,81.42
2023-02-26T04:53:32.170Z,81.09
2023-02-26T04:54:35.180Z,81.31
2023-02-26T04:55:38.297Z,81.19
2023-02-26T04:56:41.604Z,81.20
2023-02-26T04:57:44.776Z,81.51
2023-02-26T04:58:47.826Z,81.27
2023-02-26T04:59:50.753Z,81.06
2023-02-26T05:00:55.579Z,80.92
2023-02-26T05:01:59.936Z,81.28
2023-02-26T05:03:02.800Z,81.54
2023-02-26T05:04:05.683Z,81.69
2023-02-26T05:05:08.942Z,81.77
2023-02-26T05:06:11.910Z,81.87
2023-02-26T05:07:14.806Z,82.00
2023-02-26T05:08:17.782Z,82.20
2023-02-26T05:09:21.037Z,82.14
2023-02-26T05:10:25.473Z,82.16
2023-02-26T05:11:28.607Z,82.02
2023-02-26T05:12:31.503Z,82.09
2023-02-26T05:13:34.457Z,82.20
2023-02-26T05:14:37.444Z,82.47
2023-02-26T05:15:40.286Z,82.65
2023-02-26T05:16:43.474Z,82.65
2023-02-26T05:17:47.149Z,82.72
2023-02-26T05:18:50.482Z,82.60
2023-02-26T05:19:53.762Z,82.62
2023-02-26T05:20:57.239Z,82.67
2023-02-26T05:22:00.297Z,82.68
2023-02-26T05:23:03.140Z,82.67
2023-02-26T05:24:06.888Z,82.57
2023-02-26T05:25:13.050Z,82.66
2023-02-26T05:26:15.982Z,82.89
2023-02-26T05:27:18.869Z,83.11
2023-02-26T05:28:22.168Z,83.39
2023-02-26T05:29:25.202Z,83.46
2023-02-26T05:30:28.171Z,83.62
2023-02-26T05:31:31.115Z,83.76
2023-02-26T05:32:34.144Z,83.89
2023-02-26T05:33:37.214Z,84.00
2023-02-26T05:34:40.052Z,84.00
2023-02-26T05:35:43.080Z,84.00
2023-02-26T05:36:46.242Z,83.99
2023-02-26T05:37:49.218Z,83.93
2023-02-26T05:38:54.352Z,83.90
2023-02-26T05:39:57.311Z,83.80
2023-02-26T05:41:01.320Z,83.88
2023-02-26T05:42:05.138Z,83.99
2023-02-26T05:43:09.200Z,83.86
2023-02-26T05:44:12.080Z,83.59
2023-02-26T05:45:15.060Z,83.53
2023-02-26T05:46:18.017Z,83.73
2023-02-26T05:47:21.428Z,84.08
2023-02-26T05:48:24.729Z,84.18
2023-02-26T05:49:27.726Z,84.39
2023-02-26T05:50:30.924Z,84.34
2023-02-26T05:51:33.952Z,84.20
2023-02-26T05:52:37.126Z,84.05
2023-02-26T05:53:40.085Z,84.07
2023-02-26T05:54:43.140Z,84.17
2023-02-26T05:55:46.183Z,84.13
2023-02-26T05:56:49.138Z,84.04
2023-02-26T05:57:52.092Z,84.05
2023-02-26T05:58:55.021Z,84.13
2023-02-26T05:59:58.102Z,83.87
2023-02-26T06:01:01.670Z,83.68
2023-02-26T06:02:04.736Z,83.80
2023-02-26T06:03:07.800Z,83.83
2023-02-26T06:04:10.933Z,83.84
2023-02-26T06:05:13.936Z,83.92
2023-02-26T06:06:18.761Z,83.94
2023-02-26T06:07:21.846Z,83.95
2023-02-26T06:08:24.825Z,84.06
2023-02-26T06:09:27.796Z,84.15
2023-02-26T06:10:30.926Z,84.11
2023-02-26T06:11:34.256Z,84.22
2023-02-26T06:12:37.442Z,84.21
2023-02-26T06:13:40.500Z,84.33
2023-02-26T06:14:43.419Z,84.13
2023-02-26T06:15:46.305Z,84.23
2023-02-26T06:16:49.455Z,84.29
2023-02-26T06:17:52.424Z,84.19
2023-02-26T06:18:55.840Z,84.11
2023-02-26T06:19:58.984Z,84.27
2023-02-26T06:21:02.576Z,84.26
2023-02-26T06:22:05.736Z,84.36
2023-02-26T06:23:08.902Z,84.36
2023-02-26T06:24:11.865Z,84.31
2023-02-26T06:25:15.057Z,84.00
2023-02-26T06:26:17.937Z,83.82
2023-02-26T06:27:20.780Z,83.87
2023-02-26T06:28:24.785Z,84.06
2023-02-26T06:29:27.592Z,84.13
2023-02-26T06:30:30.854Z,84.12
2023-02-26T06:31:34.131Z,84.27
2023-02-26T06:32:37.245Z,84.28
2023-02-26T06:33:40.306Z,84.20
2023-02-26T06:34:43.198Z,84.31
2023-02-26T06:35:46.467Z,84.39
2023-02-26T06:36:49.353Z,84.55
2023-02-26T06:37:52.237Z,84.46
2023-02-26T06:38:56.878Z,84.22
2023-02-26T06:39:59.729Z,83.98
2023-02-26T06:41:02.592Z,84.00
2023-02-26T06:42:05.496Z,84.09
2023-02-26T06:43:08.844Z,84.18
2023-02-26T06:44:12.543Z,84.09
2023-02-26T06:45:15.517Z,84.16
2023-02-26T06:46:18.579Z,84.11
2023-02-26T06:47:21.769Z,84.01
2023-02-26T06:48:27.648Z,83.86
2023-02-26T06:49:30.739Z,83.76
2023-02-26T06:50:33.831Z,83.88
2023-02-26T06:51:37.354Z,83.66
2023-02-26T06:52:40.242Z,83.47
2023-02-26T06:53:43.501Z,83.44
2023-02-26T06:54:46.500Z,83.33
2023-02-26T06:55:52.148Z,83.43
2023-02-26T06:56:58.090Z,83.54
2023-02-26T06:58:01.364Z,83.46
2023-02-26T06:59:04.363Z,83.39
2023-02-26T07:00:10.156Z,83.31
2023-02-26T07:01:13.458Z,83.39
2023-02-26T07:02:19.528Z,83.35
2023-02-26T07:03:22.528Z,83.15
2023-02-26T07:04:25.821Z,83.03
2023-02-26T07:05:28.909Z,82.98
2023-02-26T07:06:32.520Z,82.88
2023-02-26T07:07:36.637Z,82.77
2023-02-26T07:08:40.057Z,82.63
2023-02-26T07:09:45.538Z,82.47
2023-02-26T07:10:49.852Z,82.56
2023-02-26T07:11:52.744Z,82.68
2023-02-26T07:12:55.887Z,82.80
2023-02-26T07:13:58.784Z,82.80
2023-02-26T07:15:01.625Z,82.84
2023-02-26T07:16:07.712Z,82.59
2023-02-26T07:17:10.885Z,82.20
2023-02-26T07:18:13.886Z,81.74
2023-02-26T07:19:16.893Z,81.79
2023-02-26T07:20:19.909Z,81.53
2023-02-26T07:21:22.968Z,81.73
2023-02-26T07:22:25.968Z,81.82
2023-02-26T07:23:29.423Z,81.30
2023-02-26T07:24:32.447Z,81.00
2023-02-26T07:25:35.587Z,81.03
2023-02-26T07:26:39.541Z,80.99
2023-02-26T07:27:43.878Z,80.87
2023-02-26T07:28:47.081Z,80.97
2023-02-26T07:29:50.038Z,81.12
2023-02-26T07:30:55.838Z,81.08
2023-02-26T07:31:58.926Z,79.94
2023-02-26T07:33:02.191Z,79.50
2023-02-26T07:34:05.022Z,79.68
2023-02-26T07:35:08.794Z,79.69
2023-02-26T07:36:12.027Z,79.43
2023-02-26T07:37:15.437Z,79.40
2023-02-26T07:38:19.640Z,79.46
2023-02-26T07:39:23.075Z,79.41
2023-02-26T07:40:26.157Z,79.33
2023-02-26T07:41:29.037Z,78.80
2023-02-26T07:42:32.161Z,79.09
2023-02-26T07:43:34.990Z,79.26
2023-02-26T07:44:37.821Z,78.83
2023-02-26T07:45:40.631Z,78.41
2023-02-26T07:46:43.789Z,78.36
2023-02-26T07:47:47.027Z,77.80
2023-02-26T07:48:50.697Z,77.52
2023-02-26T07:49:53.757Z,77.28
2023-02-26T07:50:56.714Z,77.13
2023-02-26T07:51:59.896Z,77.27
2023-02-26T07:53:02.863Z,77.37
2023-02-26T07:54:05.861Z,77.22
2023-02-26T07:55:09.857Z,76.73
2023-02-26T07:56:12.971Z,76.63
2023-02-26T07:57:15.952Z,77.01
2023-02-26T07:58:18.949Z,77.33
2023-02-26T07:59:21.974Z,76.81
2023-02-26T08:00:25.097Z,75.97
2023-02-26T08:01:28.306Z,76.07
2023-02-26T08:02:31.244Z,76.49
2023-02-26T08:03:34.234Z,75.99
2023-02-26T08:04:37.695Z,75.83
2023-02-26T08:05:40.810Z,75.15
2023-02-26T08:06:43.774Z,74.72
2023-02-26T08:07:46.558Z,74.36
2023-02-26T08:08:49.429Z,74.30
2023-02-26T08:09:52.375Z,74.53
2023-02-26T08:10:55.519Z,74.16
2023-02-26T08:11:58.730Z,74.07
2023-02-26T08:13:01.599Z,71.98
2023-02-26T08:14:04.466Z,72.25
2023-02-26T08:15:07.848Z,72.57
2023-02-26T08:16:10.799Z,72.46
2023-02-26T08:17:13.940Z,72.28
2023-02-26T08:18:17.214Z,71.58
2023-02-26T08:19:20.210Z,70.80
2023-02-26T08:20:23.541Z,70.19
2023-02-26T08:21:26.729Z,69.03
2023-02-26T08:22:29.666Z,69.04
2023-02-26T08:23:32.833Z,69.16
2023-02-26T08:24:35.980Z,68.57
2023-02-26T08:25:39.779Z,68.49
2023-02-26T08:26:43.149Z,67.55
2023-02-26T08:27:46.124Z,67.42
2023-02-26T08:28:49.646Z,67.58
2023-02-26T08:29:52.575Z,67.25
2023-02-26T08:30:56.101Z,66.92
2023-02-26T08:31:59.309Z,67.04
2023-02-26T08:33:02.282Z,67.59
2023-02-26T08:34:05.452Z,67.54
2023-02-26T08:35:09.941Z,67.69
2023-02-26T08:36:13.261Z,67.81
2023-02-26T08:37:16.363Z,68.32
2023-02-26T08:38:19.906Z,68.57
2023-02-26T08:39:23.122Z,68.04
2023-02-26T08:40:26.314Z,67.46
2023-02-26T08:41:30.898Z,67.27
2023-02-26T08:42:33.766Z,67.67
2023-02-26T08:43:37.050Z,67.79
2023-02-26T08:44:40.057Z,68.27
2023-02-26T08:45:43.070Z,67.37
2023-02-26T08:46:46.102Z,67.15
2023-02-26T08:47:56.556Z,67.27
2023-02-26T08:49:00.322Z,67.29
2023-02-26T08:50:03.594Z,67.44
2023-02-26T08:51:06.788Z,68.18
2023-02-26T08:52:09.681Z,67.72
2023-02-26T08:53:13.019Z,66.89
2023-02-26T08:54:16.187Z,66.81
2023-02-26T08:55:19.206Z,67.23
2023-02-26T08:56:22.446Z,67.70
2023-02-26T08:57:25.674Z,67.56
2023-02-26T08:58:30.733Z,67.66
2023-02-26T08:59:35.171Z,67.83
2023-02-26T09:00:38.421Z,67.84
2023-02-26T09:01:41.802Z,67.73
2023-02-26T09:02:45.460Z,67.95
2023-02-26T09:03:48.532Z,67.88
2023-02-26T09:04:51.592Z,67.43
2023-02-26T09:05:54.503Z,67.19
2023-02-26T09:06:57.523Z,67.35
2023-02-26T09:08:00.613Z,67.67
2023-02-26T09:09:04.362Z,67.35
2023-02-26T09:10:08.322Z,67.13
2023-02-26T09:11:12.392Z,67.24
2023-02-26T09:12:17.317Z,67.91
2023-02-26T09:13:20.675Z,67.76
2023-02-26T09:14:23.656Z,66.83
2023-02-26T09:15:26.652Z,66.71
2023-02-26T09:16:30.284Z,66.47
2023-02-26T09:17:34.093Z,66.37
2023-02-26T09:18:37.264Z,66.79
2023-02-26T09:19:40.278Z,67.02
2023-02-26T09:20:44.458Z,67.13
2023-02-26T09:21:47.364Z,66.87
2023-02-26T09:22:50.280Z,66.83
2023-02-26T09:23:53.040Z,67.02
2023-02-26T09:24:55.935Z,66.90
2023-02-26T09:25:58.772Z,66.54
2023-02-26T09:27:03.800Z,66.34
2023-02-26T09:28:06.855Z,66.75
2023-02-26T09:29:09.864Z,66.91
2023-02-26T09:30:13.944Z,66.65
2023-02-26T09:31:16.860Z,67.10
2023-02-26T09:32:19.920Z,67.18
2023-02-26T09:33:23.897Z,67.23
2023-02-26T09:34:26.984Z,67.04
2023-02-26T09:35:29.972Z,66.67
2023-02-26T09:36:34.328Z,66.69
2023-02-26T09:37:37.638Z,66.71
2023-02-26T09:38:41.578Z,66.96
2023-02-26T09:39:45.116Z,67.05
2023-02-26T09:40:59.939Z,66.79
2023-02-26T09:42:50.679Z,66.56
2023-02-26T09:44:20.963Z,66.78
2023-02-26T09:45:33.816Z,66.43
2023-02-26T09:46:55.245Z,66.62
2023-02-26T09:47:59.536Z,66.65
2023-02-26T09:49:28.808Z,67.13
2023-02-26T09:50:37.905Z,66.82
2023-02-26T09:51:41.522Z,66.78
2023-02-26T09:53:10.319Z,66.75
2023-02-26T09:54:21.857Z,66.24
2023-02-26T09:55:29.824Z,65.54
2023-02-26T09:56:37.285Z,65.51
2023-02-26T09:57:46.067Z,65.43
2023-02-26T09:58:50.723Z,65.37
2023-02-26T09:59:53.742Z,65.34
2023-02-26T10:01:05.392Z,65.57
2023-02-26T10:02:38.564Z,65.47
2023-02-26T10:03:53.727Z,65.30
2023-02-26T10:05:27.208Z,64.17
2023-02-26T10:07:11.601Z,63.93
2023-02-26T10:08:19.258Z,63.89
2023-02-26T10:09:56.404Z,63.86
2023-02-26T10:11:14.602Z,64.12
2023-02-26T10:12:23.690Z,63.19
2023-02-26T10:13:56.594Z,63.89
2023-02-26T10:15:48.948Z,63.67
2023-02-26T10:17:03.727Z,62.64
2023-02-26T10:18:17.785Z,62.66
2023-02-26T10:19:27.481Z,63.50
2023-02-26T10:20:39.311Z,62.06
2023-02-26T10:21:54.948Z,62.13
2023-02-26T10:23:03.128Z,62.34
2023-02-26T10:24:25.378Z,62.41
2023-02-26T10:25:59.194Z,62.01
2023-02-26T10:27:07.558Z,62.11
2023-02-26T10:28:28.837Z,62.11
2023-02-26T10:29:52.133Z,61.91
2023-02-26T10:31:03.792Z,62.16
2023-02-26T10:32:38.216Z,62.44
2023-02-26T10:34:07.776Z,61.78
2023-02-26T10:35:25.068Z,61.74
2023-02-26T10:36:34.090Z,61.37
2023-02-26T10:38:08.689Z,61.04
2023-02-26T10:39:26.834Z,61.18
2023-02-26T10:40:45.245Z,60.98
2023-02-26T10:41:48.460Z,60.97
2023-02-26T10:42:57.165Z,60.68
2023-02-26T10:44:09.887Z,60.92
2023-02-26T10:45:45.678Z,60.63
2023-02-26T10:47:06.246Z,60.01
2023-02-26T10:48:35.930Z,59.57
2023-02-26T10:49:52.391Z,59.44
2023-02-26T10:51:01.118Z,59.13
2023-02-26T10:52:20.684Z,57.39
2023-02-26T10:53:24.923Z,57.47
2023-02-26T10:54:38.772Z,56.92
2023-02-26T10:55:51.720Z,57.34
2023-02-26T10:56:54.714Z,57.80
2023-02-26T10:58:06.006Z,57.17
2023-02-26T10:59:09.360Z,57.52
2023-02-26T11:00:19.810Z,57.83
2023-02-26T11:01:25.910Z,57.34
2023-02-26T11:02:37.628Z,56.31
2023-02-26T11:03:47.067Z,56.39
2023-02-26T11:04:56.500Z,56.05
2023-02-26T11:06:20.649Z,56.21
2023-02-26T11:07:32.608Z,56.08
2023-02-26T11:08:51.182Z,55.78
2023-02-26T11:09:55.368Z,56.53
2023-02-26T11:11:00.854Z,56.27
2023-02-26T11:12:24.253Z,55.85
2023-02-26T11:13:31.693Z,55.76
2023-02-26T11:14:35.165Z,55.43
2023-02-26T11:15:38.614Z,55.39
2023-02-26T11:16:47.822Z,55.63
2023-02-26T11:17:57.157Z,55.36
2023-02-26T11:19:02.036Z,54.92
2023-02-26T11:20:17.449Z,55.10
2023-02-26T11:21:27.608Z,55.41
2023-02-26T11:22:36.299Z,55.55
2023-02-26T11:23:40.539Z,54.88
2023-02-26T11:24:49.556Z,55.18
2023-02-26T11:26:14.480Z,55.23
2023-02-26T11:27:27.114Z,54.99
2023-02-26T11:28:54.625Z,55.39
2023-02-26T11:30:00.496Z,55.64
2023-02-26T11:31:08.593Z,55.18
2023-02-26T11:32:19.413Z,55.55
2023-02-26T11:33:29.957Z,55.47
2023-02-26T11:34:33.400Z,55.64
2023-02-26T11:35:37.531Z,55.84
2023-02-26T11:36:45.718Z,55.53
2023-02-26T11:37:56.240Z,55.94
2023-02-26T11:39:06.204Z,56.87
2023-02-26T11:40:19.984Z,56.87
2023-02-26T11:41:25.150Z,56.76
2023-02-26T11:42:28.664Z,56.77
2023-02-26T11:43:44.588Z,57.44
2023-02-26T11:44:49.280Z,57.75
2023-02-26T11:46:02.289Z,57.91
2023-02-26T11:47:12.344Z,58.15
2023-02-26T11:48:22.871Z,58.03
2023-02-26T11:49:29.897Z,57.59
2023-02-26T11:50:43.297Z,57.85
2023-02-26T11:51:48.506Z,57.97
2023-02-26T11:53:19.948Z,58.14
2023-02-26T11:54:29.142Z,58.45
2023-02-26T11:55:40.387Z,58.08
2023-02-26T11:56:44.287Z,58.36
2023-02-26T11:57:54.801Z,58.14
2023-02-26T11:59:17.606Z,57.82
2023-02-26T12:00:36.175Z,57.49
2023-02-26T12:01:40.199Z,58.32
2023-02-26T12:02:43.576Z,58.04
2023-02-26T12:03:51.893Z,58.03
2023-02-26T12:05:01.383Z,57.58
2023-02-26T12:06:04.898Z,57.56
2023-02-26T12:07:14.635Z,58.08
2023-02-26T12:08:30.573Z,57.74
2023-02-26T12:09:35.329Z,57.94
2023-02-26T12:10:48.535Z,58.43
2023-02-26T12:12:22.076Z,57.66
2023-02-26T12:13:41.032Z,57.95
2023-02-26T12:14:53.293Z,58.22
2023-02-26T12:16:17.758Z,57.96
2023-02-26T12:17:43.578Z,58.36
2023-02-26T12:18:52.631Z,59.11
2023-02-26T12:20:18.267Z,59.57
2023-02-26T12:21:39.798Z,59.12
2023-02-26T12:23:09.098Z,59.24
2023-02-26T12:24:30.930Z,59.32
2023-02-26T12:26:09.971Z,59.36
2023-02-26T12:27:46.773Z,59.67
2023-02-26T12:29:18.210Z,59.96
2023-02-26T12:30:43.679Z,60.02
2023-02-26T12:32:07.819Z,60.00
2023-02-26T12:33:27.389Z,59.76
2023-02-26T12:34:48.782Z,60.22
2023-02-26T12:35:57.232Z,60.49
2023-02-26T12:37:48.994Z,60.81
2023-02-26T12:39:06.092Z,60.44
2023-02-26T12:40:31.659Z,60.50
2023-02-26T12:41:45.075Z,60.40
2023-02-26T12:42:54.507Z,59.86
2023-02-26T12:44:01.626Z,59.45
2023-02-26T12:45:23.571Z,59.63
2023-02-26T12:46:53.334Z,60.00
2023-02-26T12:48:32.712Z,59.98
2023-02-26T12:50:13.171Z,60.45
2023-02-26T12:51:55.695Z,59.83
2023-02-26T12:53:36.658Z,59.80
2023-02-26T12:55:04.752Z,61.03
2023-02-26T12:56:35.726Z,60.26
2023-02-26T13:02:01.298Z,59.29
2023-02-26T13:03:27.354Z,59.60
2023-02-26T13:04:54.868Z,59.66
2023-02-26T13:06:14.139Z,60.09
2023-02-26T13:07:42.694Z,59.92
2023-02-26T13:08:57.872Z,58.92
2023-02-26T13:10:22.262Z,59.13
2023-02-26T13:11:38.037Z,58.49
2023-02-26T13:12:55.356Z,58.39
2023-02-26T13:14:16.946Z,58.75
2023-02-26T13:15:44.462Z,58.70
2023-02-26T13:17:14.178Z,58.57
2023-02-26T13:18:33.396Z,59.12
2023-02-26T13:19:57.434Z,59.20
2023-02-26T13:21:27.001Z,58.75
2023-02-26T13:22:44.370Z,59.27
2023-02-26T13:24:00.249Z,59.36
2023-02-26T13:25:52.509Z,59.05
2023-02-26T13:26:56.872Z,58.61
2023-02-26T13:28:04.954Z,59.11
2023-02-26T13:29:17.867Z,59.20
2023-02-26T13:30:32.070Z,59.19
2023-02-26T13:31:58.913Z,59.67
2023-02-26T13:33:03.853Z,59.82
2023-02-26T13:34:22.642Z,59.76
2023-02-26T13:35:41.910Z,59.94
2023-02-26T13:36:47.543Z,59.92
2023-02-26T13:37:56.439Z,60.08
2023-02-26T13:39:28.186Z,60.27
2023-02-26T13:40:52.602Z,60.30
2023-02-26T13:42:17.109Z,60.81
2023-02-26T13:43:30.276Z,60.33
2023-02-26T13:44:45.290Z,60.54
2023-02-26T13:46:16.822Z,60.60
2023-02-26T13:47:43.318Z,60.77
2023-02-26T13:49:26.518Z,60.71
2023-02-26T13:50:50.664Z,60.29
2023-02-26T13:51:56.699Z,59.22
2023-02-26T13:53:27.047Z,59.51
2023-02-26T13:54:46.455Z,59.70
2023-02-26T13:55:53.041Z,59.36
2023-02-26T13:57:26.238Z,59.55
2023-02-26T13:58:38.658Z,59.66
2023-02-26T13:59:45.752Z,60.07
2023-02-26T14:00:59.106Z,60.41
2023-02-26T14:02:20.243Z,60.88
2023-02-26T14:03:26.707Z,61.16
2023-02-26T14:04:32.574Z,61.68
2023-02-26T14:05:56.718Z,61.91
2023-02-26T14:07:13.978Z,61.96
2023-02-26T14:08:42.131Z,62.20
2023-02-26T14:10:01.297Z,61.63
2023-02-26T14:11:25.596Z,61.63
2023-02-26T14:12:39.017Z,62.03
2023-02-26T14:13:42.667Z,61.95
2023-02-26T14:15:15.082Z,61.63
2023-02-26T14:16:24.935Z,61.37
2023-02-26T14:17:44.082Z,61.41
2023-02-26T14:18:47.559Z,61.55
2023-02-26T14:19:54.802Z,61.85
2023-02-26T14:21:26.533Z,61.68
2023-02-26T14:22:30.277Z,61.81
2023-02-26T14:23:40.101Z,62.07
2023-02-26T14:24:55.906Z,61.83
2023-02-26T14:26:08.294Z,62.06
2023-02-26T14:27:13.142Z,62.70
2023-02-26T14:28:28.896Z,63.10
2023-02-26T14:29:44.317Z,62.66
2023-02-26T14:30:51.393Z,62.23
2023-02-26T14:32:04.602Z,62.11
2023-02-26T14:33:13.087Z,62.13
2023-02-26T14:34:27.360Z,61.84
2023-02-26T14:35:37.419Z,61.47
2023-02-26T14:36:48.974Z,61.63
2023-02-26T14:38:08.466Z,61.93
2023-02-26T14:39:39.880Z,62.33
2023-02-26T14:40:58.678Z,62.62
2023-02-26T14:42:10.270Z,62.97
2023-02-26T14:43:52.249Z,63.09
2023-02-26T14:45:19.436Z,63.63
2023-02-26T14:46:24.312Z,63.47
2023-02-26T14:47:28.133Z,63.87
2023-02-26T14:48:33.842Z,64.16
2023-02-26T14:49:41.875Z,64.14
2023-02-26T14:51:04.811Z,64.30
2023-02-26T14:52:17.804Z,64.38
2023-02-26T14:53:43.534Z,63.81
2023-02-26T14:54:59.437Z,64.01
2023-02-26T14:56:11.717Z,63.86
2023-02-26T14:57:40.624Z,63.56
2023-02-26T14:59:19.896Z,63.55
2023-02-26T15:00:51.058Z,63.92
2023-02-26T15:02:20.363Z,63.64
2023-02-26T15:04:02.437Z,64.00
2023-02-26T15:05:22.883Z,63.88
2023-02-26T15:06:38.216Z,63.84
2023-02-26T15:07:58.056Z,63.97
2023-02-26T15:09:12.256Z,63.99
2023-02-26T15:10:41.955Z,64.04
2023-02-26T15:12:03.258Z,64.54
2023-02-26T15:13:42.523Z,64.63